sensor_id;sensor_type;location;lat;lon;timestamp;P1;durP1;ratioP1;P2;durP2;ratioP2
5795;SDS011;2924;51.458;7.046;2023-03-12T00:01:46;10.40;;;2.73;;
5795;SDS011;2924;51.458;7.046;2023-03-12T00:04:11;6.50;;;2.93;;
5795;SDS011;2924;51.458;7.046;2023-03-12T00:06:37;8.63;;;3.33;;
5795;SDS011;2924;51.458;7.046;2023-03-12T00:09:03;7.90;;;3.10;;
5795;SDS011;2924;51.458;7.046;2023-03-12T00:11:29;3.07;;;2.30;;
5795;SDS011;2924;51.458;7.046;2023-03-12T00:13:56;3.40;;;2.03;;
5795;SDS011;2924;51.458;7.046;2023-03-12T00:16:22;3.27;;;2.30;;
5795;SDS011;2924;51.458;7.046;2023-03-12T00:18:49;4.53;;;2.30;;
5795;SDS011;2924;51.458;7.046;2023-03-12T00:21:16;2.47;;;2.20;;
5795;SDS011;2924;51.458;7.046;2023-03-12T00:23:43;5.73;;;2.40;;
5795;SDS011;2924;51.458;7.046;2023-03-12T00:26:12;7.20;;;2.17;;
5795;SDS011;2924;51.458;7.046;2023-03-12T00:28:38;2.73;;;2.23;;
5795;SDS011;2924;51.458;7.046;2023-03-12T00:31:15;3.33;;;2.10;;
5795;SDS011;2924;51.458;7.046;2023-03-12T00:33:43;8.50;;;2.00;;
5795;SDS011;2924;51.458;7.046;2023-03-12T00:36:09;6.23;;;2.20;;
5795;SDS011;2924;51.458;7.046;2023-03-12T00:38:35;3.30;;;2.43;;
5795;SDS011;2924;51.458;7.046;2023-03-12T00:41:01;2.73;;;2.07;;
5795;SDS011;2924;51.458;7.046;2023-03-12T00:43:27;6.93;;;1.87;;
5795;SDS011;2924;51.458;7.046;2023-03-12T00:45:52;6.33;;;2.20;;
5795;SDS011;2924;51.458;7.046;2023-03-12T00:48:18;4.90;;;1.60;;
5795;SDS011;2924;51.458;7.046;2023-03-12T00:50:44;10.37;;;1.83;;
5795;SDS011;2924;51.458;7.046;2023-03-12T00:53:09;7.23;;;2.33;;
5795;SDS011;2924;51.458;7.046;2023-03-12T00:55:35;4.00;;;1.47;;
5795;SDS011;2924;51.458;7.046;2023-03-12T00:58:01;2.33;;;2.03;;
5795;SDS011;2924;51.458;7.046;2023-03-12T01:00:26;4.60;;;1.77;;
5795;SDS011;2924;51.458;7.046;2023-03-12T01:02:52;5.23;;;1.70;;
5795;SDS011;2924;51.458;7.046;2023-03-12T01:05:18;3.03;;;1.77;;
5795;SDS011;2924;51.458;7.046;2023-03-12T01:07:44;5.60;;;1.47;;
5795;SDS011;2924;51.458;7.046;2023-03-12T01:10:10;5.23;;;2.57;;
5795;SDS011;2924;51.458;7.046;2023-03-12T01:12:38;4.30;;;1.70;;
5795;SDS011;2924;51.458;7.046;2023-03-12T01:15:05;9.93;;;2.30;;
5795;SDS011;2924;51.458;7.046;2023-03-12T01:17:31;4.63;;;1.70;;
5795;SDS011;2924;51.458;7.046;2023-03-12T01:19:57;2.53;;;1.93;;
5795;SDS011;2924;51.458;7.046;2023-03-12T01:22:22;6.80;;;1.80;;
5795;SDS011;2924;51.458;7.046;2023-03-12T01:24:48;4.07;;;1.80;;
5795;SDS011;2924;51.458;7.046;2023-03-12T01:27:14;7.53;;;1.87;;
5795;SDS011;2924;51.458;7.046;2023-03-12T01:29:39;10.83;;;2.10;;
5795;SDS011;2924;51.458;7.046;2023-03-12T01:32:05;7.60;;;2.13;;
5795;SDS011;2924;51.458;7.046;2023-03-12T01:34:31;3.23;;;2.00;;
5795;SDS011;2924;51.458;7.046;2023-03-12T01:36:59;4.83;;;1.90;;
5795;SDS011;2924;51.458;7.046;2023-03-12T01:39:25;2.73;;;1.53;;
5795;SDS011;2924;51.458;7.046;2023-03-12T01:41:51;3.63;;;1.50;;
5795;SDS011;2924;51.458;7.046;2023-03-12T01:44:17;4.70;;;1.93;;
5795;SDS011;2924;51.458;7.046;2023-03-12T01:46:43;7.93;;;2.60;;
5795;SDS011;2924;51.458;7.046;2023-03-12T01:51:54;1.87;;;1.53;;
5795;SDS011;2924;51.458;7.046;2023-03-12T01:54:41;5.20;;;1.60;;
5795;SDS011;2924;51.458;7.046;2023-03-12T01:57:13;5.30;;;1.87;;
5795;SDS011;2924;51.458;7.046;2023-03-12T01:59:46;7.57;;;2.00;;
5795;SDS011;2924;51.458;7.046;2023-03-12T02:02:18;2.27;;;1.70;;
5795;SDS011;2924;51.458;7.046;2023-03-12T02:04:48;2.63;;;2.13;;
5795;SDS011;2924;51.458;7.046;2023-03-12T02:10:17;7.40;;;2.10;;
5795;SDS011;2924;51.458;7.046;2023-03-12T02:12:43;2.97;;;1.37;;
5795;SDS011;2924;51.458;7.046;2023-03-12T02:15:09;1.33;;;1.23;;
5795;SDS011;2924;51.458;7.046;2023-03-12T02:17:35;3.43;;;1.90;;
5795;SDS011;2924;51.458;7.046;2023-03-12T02:22:33;3.50;;;1.30;;
5795;SDS011;2924;51.458;7.046;2023-03-12T02:25:02;7.07;;;1.87;;
5795;SDS011;2924;51.458;7.046;2023-03-12T02:27:48;2.60;;;1.33;;
5795;SDS011;2924;51.458;7.046;2023-03-12T02:30:15;9.27;;;1.47;;
5795;SDS011;2924;51.458;7.046;2023-03-12T02:32:43;3.43;;;1.20;;
5795;SDS011;2924;51.458;7.046;2023-03-12T02:35:11;1.37;;;1.23;;
5795;SDS011;2924;51.458;7.046;2023-03-12T02:37:48;1.17;;;1.10;;
5795;SDS011;2924;51.458;7.046;2023-03-12T02:40:23;5.10;;;1.80;;
5795;SDS011;2924;51.458;7.046;2023-03-12T02:42:52;10.60;;;1.60;;
5795;SDS011;2924;51.458;7.046;2023-03-12T02:45:19;7.27;;;1.80;;
5795;SDS011;2924;51.458;7.046;2023-03-12T02:47:45;9.33;;;1.17;;
5795;SDS011;2924;51.458;7.046;2023-03-12T02:50:11;1.20;;;1.10;;
5795;SDS011;2924;51.458;7.046;2023-03-12T02:52:37;3.20;;;0.97;;
5795;SDS011;2924;51.458;7.046;2023-03-12T02:55:05;9.13;;;1.10;;
5795;SDS011;2924;51.458;7.046;2023-03-12T02:57:32;5.87;;;1.10;;
5795;SDS011;2924;51.458;7.046;2023-03-12T02:59:57;6.27;;;1.20;;
5795;SDS011;2924;51.458;7.046;2023-03-12T03:02:23;8.93;;;1.30;;
5795;SDS011;2924;51.458;7.046;2023-03-12T03:04:49;1.90;;;0.90;;
5795;SDS011;2924;51.458;7.046;2023-03-12T03:07:15;1.90;;;0.90;;
5795;SDS011;2924;51.458;7.046;2023-03-12T03:09:40;4.23;;;1.10;;
5795;SDS011;2924;51.458;7.046;2023-03-12T03:12:06;3.50;;;1.40;;
5795;SDS011;2924;51.458;7.046;2023-03-12T03:14:32;7.40;;;2.03;;
5795;SDS011;2924;51.458;7.046;2023-03-12T03:16:57;4.23;;;0.90;;
5795;SDS011;2924;51.458;7.046;2023-03-12T03:19:23;1.33;;;1.20;;
5795;SDS011;2924;51.458;7.046;2023-03-12T03:21:49;2.57;;;1.30;;
5795;SDS011;2924;51.458;7.046;2023-03-12T03:24:14;5.30;;;1.07;;
5795;SDS011;2924;51.458;7.046;2023-03-12T03:26:40;1.07;;;0.83;;
5795;SDS011;2924;51.458;7.046;2023-03-12T03:29:06;2.53;;;1.47;;
5795;SDS011;2924;51.458;7.046;2023-03-12T03:31:32;1.20;;;1.07;;
5795;SDS011;2924;51.458;7.046;2023-03-12T03:33:58;5.73;;;1.53;;
5795;SDS011;2924;51.458;7.046;2023-03-12T03:36:24;1.30;;;1.13;;
5795;SDS011;2924;51.458;7.046;2023-03-12T03:38:49;5.20;;;0.83;;
5795;SDS011;2924;51.458;7.046;2023-03-12T03:41:16;2.67;;;1.10;;
5795;SDS011;2924;51.458;7.046;2023-03-12T03:43:42;2.20;;;0.90;;
5795;SDS011;2924;51.458;7.046;2023-03-12T03:46:10;2.20;;;1.10;;
5795;SDS011;2924;51.458;7.046;2023-03-12T03:48:37;7.30;;;1.17;;
5795;SDS011;2924;51.458;7.046;2023-03-12T03:51:03;2.63;;;1.27;;
5795;SDS011;2924;51.458;7.046;2023-03-12T03:53:30;3.30;;;0.90;;
5795;SDS011;2924;51.458;7.046;2023-03-12T03:55:56;3.43;;;1.30;;
5795;SDS011;2924;51.458;7.046;2023-03-12T03:58:28;3.03;;;1.13;;
5795;SDS011;2924;51.458;7.046;2023-03-12T04:00:54;2.93;;;0.73;;
5795;SDS011;2924;51.458;7.046;2023-03-12T04:03:19;1.37;;;1.13;;
5795;SDS011;2924;51.458;7.046;2023-03-12T04:05:45;7.43;;;1.20;;
5795;SDS011;2924;51.458;7.046;2023-03-12T04:08:11;1.50;;;0.83;;
5795;SDS011;2924;51.458;7.046;2023-03-12T04:10:37;4.43;;;1.50;;
5795;SDS011;2924;51.458;7.046;2023-03-12T04:13:03;3.40;;;0.80;;
5795;SDS011;2924;51.458;7.046;2023-03-12T04:15:28;1.00;;;0.90;;
5795;SDS011;2924;51.458;7.046;2023-03-12T04:17:54;0.67;;;0.60;;
5795;SDS011;2924;51.458;7.046;2023-03-12T04:20:20;6.63;;;1.30;;
5795;SDS011;2924;51.458;7.046;2023-03-12T04:22:45;2.60;;;1.00;;
5795;SDS011;2924;51.458;7.046;2023-03-12T04:25:11;1.40;;;1.27;;
5795;SDS011;2924;51.458;7.046;2023-03-12T04:27:37;2.20;;;0.90;;
5795;SDS011;2924;51.458;7.046;2023-03-12T04:30:03;7.10;;;1.20;;
5795;SDS011;2924;51.458;7.046;2023-03-12T04:32:29;5.93;;;1.20;;
5795;SDS011;2924;51.458;7.046;2023-03-12T04:34:54;3.83;;;1.30;;
5795;SDS011;2924;51.458;7.046;2023-03-12T04:37:20;10.67;;;1.50;;
5795;SDS011;2924;51.458;7.046;2023-03-12T04:39:46;1.37;;;1.10;;
5795;SDS011;2924;51.458;7.046;2023-03-12T04:42:12;2.50;;;1.10;;
5795;SDS011;2924;51.458;7.046;2023-03-12T04:44:37;1.77;;;1.00;;
5795;SDS011;2924;51.458;7.046;2023-03-12T04:47:05;4.47;;;0.87;;
5795;SDS011;2924;51.458;7.046;2023-03-12T04:49:30;15.87;;;0.80;;
5795;SDS011;2924;51.458;7.046;2023-03-12T04:51:56;2.53;;;1.00;;
5795;SDS011;2924;51.458;7.046;2023-03-12T04:54:22;10.10;;;1.30;;
5795;SDS011;2924;51.458;7.046;2023-03-12T04:56:48;3.13;;;1.10;;
5795;SDS011;2924;51.458;7.046;2023-03-12T04:59:14;2.97;;;1.20;;
5795;SDS011;2924;51.458;7.046;2023-03-12T05:01:40;2.73;;;1.10;;
5795;SDS011;2924;51.458;7.046;2023-03-12T05:04:06;3.03;;;1.00;;
5795;SDS011;2924;51.458;7.046;2023-03-12T05:06:32;1.00;;;1.00;;
5795;SDS011;2924;51.458;7.046;2023-03-12T05:08:57;1.20;;;0.60;;
5795;SDS011;2924;51.458;7.046;2023-03-12T05:11:23;5.57;;;1.00;;
5795;SDS011;2924;51.458;7.046;2023-03-12T05:13:49;3.63;;;1.27;;
5795;SDS011;2924;51.458;7.046;2023-03-12T05:16:15;0.80;;;0.80;;
5795;SDS011;2924;51.458;7.046;2023-03-12T05:18:41;6.37;;;1.00;;
5795;SDS011;2924;51.458;7.046;2023-03-12T05:21:09;3.53;;;0.80;;
5795;SDS011;2924;51.458;7.046;2023-03-12T05:23:37;4.13;;;1.23;;
5795;SDS011;2924;51.458;7.046;2023-03-12T05:26:04;9.27;;;0.97;;
5795;SDS011;2924;51.458;7.046;2023-03-12T05:28:30;7.43;;;1.17;;
5795;SDS011;2924;51.458;7.046;2023-03-12T05:30:58;2.50;;;1.13;;
5795;SDS011;2924;51.458;7.046;2023-03-12T05:33:25;6.63;;;1.00;;
5795;SDS011;2924;51.458;7.046;2023-03-12T05:35:51;3.53;;;1.10;;
5795;SDS011;2924;51.458;7.046;2023-03-12T05:38:17;6.70;;;1.63;;
5795;SDS011;2924;51.458;7.046;2023-03-12T05:40:49;4.10;;;1.10;;
5795;SDS011;2924;51.458;7.046;2023-03-12T05:43:17;8.30;;;1.83;;
5795;SDS011;2924;51.458;7.046;2023-03-12T05:45:43;5.20;;;1.87;;
5795;SDS011;2924;51.458;7.046;2023-03-12T05:48:08;11.33;;;1.23;;
5795;SDS011;2924;51.458;7.046;2023-03-12T05:50:34;4.53;;;1.33;;
5795;SDS011;2924;51.458;7.046;2023-03-12T05:53:00;6.53;;;1.17;;
5795;SDS011;2924;51.458;7.046;2023-03-12T05:55:25;10.03;;;1.30;;
5795;SDS011;2924;51.458;7.046;2023-03-12T05:57:51;7.43;;;1.00;;
5795;SDS011;2924;51.458;7.046;2023-03-12T06:00:17;1.30;;;1.20;;
5795;SDS011;2924;51.458;7.046;2023-03-12T06:02:43;6.30;;;1.43;;
5795;SDS011;2924;51.458;7.046;2023-03-12T06:05:09;4.10;;;1.00;;
5795;SDS011;2924;51.458;7.046;2023-03-12T06:07:36;6.73;;;1.20;;
5795;SDS011;2924;51.458;7.046;2023-03-12T06:10:02;4.97;;;1.23;;
5795;SDS011;2924;51.458;7.046;2023-03-12T06:12:27;2.33;;;1.30;;
5795;SDS011;2924;51.458;7.046;2023-03-12T06:14:53;7.03;;;1.80;;
5795;SDS011;2924;51.458;7.046;2023-03-12T06:17:19;2.97;;;1.47;;
5795;SDS011;2924;51.458;7.046;2023-03-12T06:19:44;4.53;;;1.23;;
5795;SDS011;2924;51.458;7.046;2023-03-12T06:22:10;5.67;;;1.53;;
5795;SDS011;2924;51.458;7.046;2023-03-12T06:24:36;1.37;;;1.10;;
5795;SDS011;2924;51.458;7.046;2023-03-12T06:27:01;2.00;;;1.10;;
5795;SDS011;2924;51.458;7.046;2023-03-12T06:29:27;1.17;;;0.83;;
5795;SDS011;2924;51.458;7.046;2023-03-12T06:31:53;10.70;;;1.60;;
5795;SDS011;2924;51.458;7.046;2023-03-12T06:34:19;12.20;;;1.73;;
5795;SDS011;2924;51.458;7.046;2023-03-12T06:36:45;1.67;;;0.90;;
5795;SDS011;2924;51.458;7.046;2023-03-12T06:39:11;2.83;;;1.40;;
5795;SDS011;2924;51.458;7.046;2023-03-12T06:41:37;4.73;;;1.70;;
5795;SDS011;2924;51.458;7.046;2023-03-12T06:44:02;2.47;;;1.20;;
5795;SDS011;2924;51.458;7.046;2023-03-12T06:46:31;7.47;;;1.10;;
5795;SDS011;2924;51.458;7.046;2023-03-12T06:48:57;5.73;;;1.67;;
5795;SDS011;2924;51.458;7.046;2023-03-12T06:51:22;7.50;;;1.70;;
5795;SDS011;2924;51.458;7.046;2023-03-12T06:53:48;4.00;;;1.40;;
5795;SDS011;2924;51.458;7.046;2023-03-12T06:56:14;4.53;;;1.70;;
5795;SDS011;2924;51.458;7.046;2023-03-12T06:58:40;2.33;;;1.67;;
5795;SDS011;2924;51.458;7.046;2023-03-12T07:01:06;3.03;;;1.50;;
5795;SDS011;2924;51.458;7.046;2023-03-12T07:03:32;7.60;;;1.43;;
5795;SDS011;2924;51.458;7.046;2023-03-12T07:05:58;1.30;;;1.27;;
5795;SDS011;2924;51.458;7.046;2023-03-12T07:08:25;4.00;;;1.13;;
5795;SDS011;2924;51.458;7.046;2023-03-12T07:10:54;5.57;;;1.93;;
5795;SDS011;2924;51.458;7.046;2023-03-12T07:13:21;4.57;;;1.23;;
5795;SDS011;2924;51.458;7.046;2023-03-12T07:15:46;3.40;;;1.50;;
5795;SDS011;2924;51.458;7.046;2023-03-12T07:18:12;6.33;;;1.57;;
5795;SDS011;2924;51.458;7.046;2023-03-12T07:20:39;4.93;;;1.60;;
5795;SDS011;2924;51.458;7.046;2023-03-12T07:23:07;5.17;;;1.80;;
5795;SDS011;2924;51.458;7.046;2023-03-12T07:25:36;6.90;;;1.50;;
5795;SDS011;2924;51.458;7.046;2023-03-12T07:28:04;6.20;;;1.90;;
5795;SDS011;2924;51.458;7.046;2023-03-12T07:30:30;4.00;;;1.77;;
5795;SDS011;2924;51.458;7.046;2023-03-12T07:33:04;4.77;;;2.17;;
5795;SDS011;2924;51.458;7.046;2023-03-12T07:35:39;4.53;;;1.43;;
5795;SDS011;2924;51.458;7.046;2023-03-12T07:38:05;9.00;;;1.77;;
5795;SDS011;2924;51.458;7.046;2023-03-12T07:40:31;6.43;;;2.17;;
5795;SDS011;2924;51.458;7.046;2023-03-12T07:42:57;6.13;;;1.63;;
5795;SDS011;2924;51.458;7.046;2023-03-12T07:45:22;2.40;;;1.93;;
5795;SDS011;2924;51.458;7.046;2023-03-12T07:47:49;5.97;;;2.23;;
5795;SDS011;2924;51.458;7.046;2023-03-12T07:50:15;4.37;;;1.63;;
5795;SDS011;2924;51.458;7.046;2023-03-12T07:52:42;3.97;;;2.20;;
5795;SDS011;2924;51.458;7.046;2023-03-12T07:55:08;1.60;;;1.50;;
5795;SDS011;2924;51.458;7.046;2023-03-12T07:57:34;4.33;;;1.70;;
5795;SDS011;2924;51.458;7.046;2023-03-12T08:00:01;3.53;;;1.40;;
5795;SDS011;2924;51.458;7.046;2023-03-12T08:02:29;3.43;;;1.70;;
5795;SDS011;2924;51.458;7.046;2023-03-12T08:04:55;2.40;;;1.83;;
5795;SDS011;2924;51.458;7.046;2023-03-12T08:07:20;2.47;;;2.27;;
5795;SDS011;2924;51.458;7.046;2023-03-12T08:09:46;14.00;;;2.57;;
5795;SDS011;2924;51.458;7.046;2023-03-12T08:12:13;3.80;;;2.10;;
5795;SDS011;2924;51.458;7.046;2023-03-12T08:14:38;6.10;;;2.47;;
5795;SDS011;2924;51.458;7.046;2023-03-12T08:17:04;4.30;;;2.80;;
5795;SDS011;2924;51.458;7.046;2023-03-12T08:19:30;5.10;;;2.10;;
5795;SDS011;2924;51.458;7.046;2023-03-12T08:21:55;3.33;;;1.97;;
5795;SDS011;2924;51.458;7.046;2023-03-12T08:24:22;10.90;;;1.97;;
5795;SDS011;2924;51.458;7.046;2023-03-12T08:26:47;4.20;;;2.30;;
5795;SDS011;2924;51.458;7.046;2023-03-12T08:29:13;4.60;;;2.13;;
5795;SDS011;2924;51.458;7.046;2023-03-12T08:31:39;4.50;;;2.50;;
5795;SDS011;2924;51.458;7.046;2023-03-12T08:34:05;3.20;;;1.97;;
5795;SDS011;2924;51.458;7.046;2023-03-12T08:36:31;7.10;;;3.33;;
5795;SDS011;2924;51.458;7.046;2023-03-12T08:38:56;4.10;;;2.73;;
5795;SDS011;2924;51.458;7.046;2023-03-12T08:41:22;12.30;;;2.40;;
5795;SDS011;2924;51.458;7.046;2023-03-12T08:43:48;4.93;;;2.50;;
5795;SDS011;2924;51.458;7.046;2023-03-12T08:46:13;3.40;;;2.63;;
5795;SDS011;2924;51.458;7.046;2023-03-12T08:48:39;3.80;;;2.60;;
5795;SDS011;2924;51.458;7.046;2023-03-12T08:51:05;7.43;;;2.60;;
5795;SDS011;2924;51.458;7.046;2023-03-12T08:53:32;6.80;;;2.67;;
5795;SDS011;2924;51.458;7.046;2023-03-12T08:56:00;2.77;;;2.07;;
5795;SDS011;2924;51.458;7.046;2023-03-12T08:58:26;4.33;;;1.53;;
5795;SDS011;2924;51.458;7.046;2023-03-12T09:00:52;3.40;;;1.97;;
5795;SDS011;2924;51.458;7.046;2023-03-12T09:03:19;4.13;;;2.23;;
5795;SDS011;2924;51.458;7.046;2023-03-12T09:05:45;4.80;;;2.03;;
5795;SDS011;2924;51.458;7.046;2023-03-12T09:08:12;3.17;;;2.03;;
5795;SDS011;2924;51.458;7.046;2023-03-12T09:10:38;5.20;;;2.07;;
5795;SDS011;2924;51.458;7.046;2023-03-12T09:13:04;4.60;;;1.70;;
5795;SDS011;2924;51.458;7.046;2023-03-12T09:15:30;2.53;;;1.70;;
5795;SDS011;2924;51.458;7.046;2023-03-12T09:17:56;5.20;;;2.03;;
5795;SDS011;2924;51.458;7.046;2023-03-12T09:20:22;1.70;;;1.60;;
5795;SDS011;2924;51.458;7.046;2023-03-12T09:22:49;2.30;;;1.50;;
5795;SDS011;2924;51.458;7.046;2023-03-12T09:25:15;2.30;;;2.03;;
5795;SDS011;2924;51.458;7.046;2023-03-12T09:27:43;4.73;;;2.23;;
5795;SDS011;2924;51.458;7.046;2023-03-12T09:30:13;2.03;;;1.57;;
5795;SDS011;2924;51.458;7.046;2023-03-12T09:32:40;3.50;;;2.00;;
5795;SDS011;2924;51.458;7.046;2023-03-12T09:35:06;5.27;;;2.57;;
5795;SDS011;2924;51.458;7.046;2023-03-12T09:37:33;6.13;;;2.40;;
5795;SDS011;2924;51.458;7.046;2023-03-12T09:39:59;4.47;;;2.50;;
5795;SDS011;2924;51.458;7.046;2023-03-12T09:42:26;5.80;;;2.20;;
5795;SDS011;2924;51.458;7.046;2023-03-12T09:45:06;4.80;;;2.00;;
5795;SDS011;2924;51.458;7.046;2023-03-12T09:47:46;2.90;;;2.30;;
5795;SDS011;2924;51.458;7.046;2023-03-12T09:52:57;3.33;;;3.03;;
5795;SDS011;2924;51.458;7.046;2023-03-12T09:55:23;4.10;;;2.60;;
5795;SDS011;2924;51.458;7.046;2023-03-12T09:57:50;6.50;;;2.60;;
5795;SDS011;2924;51.458;7.046;2023-03-12T10:00:18;3.10;;;2.80;;
5795;SDS011;2924;51.458;7.046;2023-03-12T10:08:50;3.50;;;2.70;;
5795;SDS011;2924;51.458;7.046;2023-03-12T10:19:54;2.87;;;2.70;;
5795;SDS011;2924;51.458;7.046;2023-03-12T10:22:38;2.97;;;2.77;;
5795;SDS011;2924;51.458;7.046;2023-03-12T10:30:37;2.10;;;2.00;;
5795;SDS011;2924;51.458;7.046;2023-03-12T10:33:09;7.10;;;2.17;;
5795;SDS011;2924;51.458;7.046;2023-03-12T10:35:37;2.80;;;2.60;;
5795;SDS011;2924;51.458;7.046;2023-03-12T10:38:04;2.67;;;2.47;;
5795;SDS011;2924;51.458;7.046;2023-03-12T10:40:39;3.00;;;2.77;;
5795;SDS011;2924;51.458;7.046;2023-03-12T10:43:05;4.70;;;2.67;;
5795;SDS011;2924;51.458;7.046;2023-03-12T10:48:09;3.20;;;2.90;;
5795;SDS011;2924;51.458;7.046;2023-03-12T10:50:41;3.20;;;3.00;;
5795;SDS011;2924;51.458;7.046;2023-03-12T10:56:01;3.73;;;3.43;;
5795;SDS011;2924;51.458;7.046;2023-03-12T10:58:33;3.63;;;3.20;;
5795;SDS011;2924;51.458;7.046;2023-03-12T11:01:00;4.20;;;3.80;;
5795;SDS011;2924;51.458;7.046;2023-03-12T11:03:27;5.17;;;3.53;;
5795;SDS011;2924;51.458;7.046;2023-03-12T11:05:54;5.73;;;4.00;;
5795;SDS011;2924;51.458;7.046;2023-03-12T11:10:52;4.30;;;3.97;;
5795;SDS011;2924;51.458;7.046;2023-03-12T11:13:26;3.90;;;3.70;;
5795;SDS011;2924;51.458;7.046;2023-03-12T11:15:57;3.90;;;3.70;;
5795;SDS011;2924;51.458;7.046;2023-03-12T11:18:26;4.80;;;4.40;;
5795;SDS011;2924;51.458;7.046;2023-03-12T11:23:41;5.77;;;5.10;;
5795;SDS011;2924;51.458;7.046;2023-03-12T11:26:48;5.57;;;5.00;;
5795;SDS011;2924;51.458;7.046;2023-03-12T11:29:30;7.30;;;6.60;;
5795;SDS011;2924;51.458;7.046;2023-03-12T11:34:42;9.30;;;6.53;;
5795;SDS011;2924;51.458;7.046;2023-03-12T12:00:15;6.83;;;6.23;;
5795;SDS011;2924;51.458;7.046;2023-03-12T12:08:22;8.50;;;7.30;;
5795;SDS011;2924;51.458;7.046;2023-03-12T12:11:00;6.70;;;6.10;;
5795;SDS011;2924;51.458;7.046;2023-03-12T12:24:49;8.27;;;6.90;;
5795;SDS011;2924;51.458;7.046;2023-03-12T12:27:20;10.50;;;8.00;;
5795;SDS011;2924;51.458;7.046;2023-03-12T12:29:57;11.70;;;8.60;;
5795;SDS011;2924;51.458;7.046;2023-03-12T12:38:30;13.67;;;9.73;;
5795;SDS011;2924;51.458;7.046;2023-03-12T12:43:47;16.00;;;11.40;;
5795;SDS011;2924;51.458;7.046;2023-03-12T12:46:24;14.33;;;11.00;;
5795;SDS011;2924;51.458;7.046;2023-03-12T12:51:25;15.20;;;11.57;;
5795;SDS011;2924;51.458;7.046;2023-03-12T13:02:14;15.07;;;11.10;;
5795;SDS011;2924;51.458;7.046;2023-03-12T13:04:42;21.30;;;13.30;;
5795;SDS011;2924;51.458;7.046;2023-03-12T13:09:38;20.60;;;11.47;;
5795;SDS011;2924;51.458;7.046;2023-03-12T13:12:17;15.10;;;9.90;;
5795;SDS011;2924;51.458;7.046;2023-03-12T13:14:54;16.63;;;11.47;;
5795;SDS011;2924;51.458;7.046;2023-03-12T13:19:47;20.17;;;9.23;;
5795;SDS011;2924;51.458;7.046;2023-03-12T13:22:24;13.93;;;8.80;;
5795;SDS011;2924;51.458;7.046;2023-03-12T13:27:37;22.27;;;9.67;;
5795;SDS011;2924;51.458;7.046;2023-03-12T13:43:02;16.03;;;9.00;;
5795;SDS011;2924;51.458;7.046;2023-03-12T13:48:21;20.50;;;8.80;;
5795;SDS011;2924;51.458;7.046;2023-03-12T13:50:51;23.33;;;8.40;;
5795;SDS011;2924;51.458;7.046;2023-03-12T13:53:27;14.23;;;7.10;;
5795;SDS011;2924;51.458;7.046;2023-03-12T13:56:00;18.43;;;7.00;;
5795;SDS011;2924;51.458;7.046;2023-03-12T13:58:44;23.87;;;7.93;;
5795;SDS011;2924;51.458;7.046;2023-03-12T14:01:22;22.83;;;6.87;;
5795;SDS011;2924;51.458;7.046;2023-03-12T14:03:55;18.13;;;6.37;;
5795;SDS011;2924;51.458;7.046;2023-03-12T14:06:26;33.20;;;7.20;;
5795;SDS011;2924;51.458;7.046;2023-03-12T14:17:24;26.23;;;7.13;;
5795;SDS011;2924;51.458;7.046;2023-03-12T14:20:02;17.07;;;6.90;;
5795;SDS011;2924;51.458;7.046;2023-03-12T14:22:31;25.07;;;6.93;;
5795;SDS011;2924;51.458;7.046;2023-03-12T14:25:01;33.70;;;7.30;;
5795;SDS011;2924;51.458;7.046;2023-03-12T14:27:35;28.90;;;6.20;;
5795;SDS011;2924;51.458;7.046;2023-03-12T14:32:39;23.37;;;6.93;;
5795;SDS011;2924;51.458;7.046;2023-03-12T14:37:55;24.00;;;7.40;;
5795;SDS011;2924;51.458;7.046;2023-03-12T14:43:28;24.40;;;7.37;;
5795;SDS011;2924;51.458;7.046;2023-03-12T14:45:59;44.30;;;7.43;;
5795;SDS011;2924;51.458;7.046;2023-03-12T14:48:36;20.30;;;7.30;;
5795;SDS011;2924;51.458;7.046;2023-03-12T14:51:03;37.23;;;8.50;;
5795;SDS011;2924;51.458;7.046;2023-03-12T14:53:36;32.73;;;12.60;;
5795;SDS011;2924;51.458;7.046;2023-03-12T14:58:41;30.63;;;7.23;;
5795;SDS011;2924;51.458;7.046;2023-03-12T15:01:12;22.23;;;6.93;;
5795;SDS011;2924;51.458;7.046;2023-03-12T15:03:42;36.13;;;7.10;;
5795;SDS011;2924;51.458;7.046;2023-03-12T15:06:14;32.17;;;7.90;;
5795;SDS011;2924;51.458;7.046;2023-03-12T15:08:43;24.73;;;6.50;;
5795;SDS011;2924;51.458;7.046;2023-03-12T15:11:10;27.10;;;5.50;;
5795;SDS011;2924;51.458;7.046;2023-03-12T15:13:39;24.60;;;5.83;;
5795;SDS011;2924;51.458;7.046;2023-03-12T15:16:05;45.80;;;6.17;;
5795;SDS011;2924;51.458;7.046;2023-03-12T15:18:31;29.37;;;6.47;;
5795;SDS011;2924;51.458;7.046;2023-03-12T15:20:58;22.50;;;4.40;;
5795;SDS011;2924;51.458;7.046;2023-03-12T15:23:27;29.67;;;4.93;;
5795;SDS011;2924;51.458;7.046;2023-03-12T15:31:44;58.50;;;13.43;;
5795;SDS011;2924;51.458;7.046;2023-03-12T15:34:12;33.30;;;8.70;;
5795;SDS011;2924;51.458;7.046;2023-03-12T15:36:50;26.40;;;5.77;;
5795;SDS011;2924;51.458;7.046;2023-03-12T15:39:21;41.73;;;9.80;;
5795;SDS011;2924;51.458;7.046;2023-03-12T15:41:54;52.30;;;9.67;;
5795;SDS011;2924;51.458;7.046;2023-03-12T15:44:25;31.83;;;6.70;;
5795;SDS011;2924;51.458;7.046;2023-03-12T15:47:04;35.47;;;7.80;;
5795;SDS011;2924;51.458;7.046;2023-03-12T15:49:35;33.07;;;8.47;;
5795;SDS011;2924;51.458;7.046;2023-03-12T15:52:03;42.37;;;8.50;;
5795;SDS011;2924;51.458;7.046;2023-03-12T16:00:16;43.67;;;7.93;;
5795;SDS011;2924;51.458;7.046;2023-03-12T16:05:19;29.97;;;5.33;;
5795;SDS011;2924;51.458;7.046;2023-03-12T16:07:58;87.90;;;16.70;;
5795;SDS011;2924;51.458;7.046;2023-03-12T16:10:26;40.83;;;8.80;;
5795;SDS011;2924;51.458;7.046;2023-03-12T16:12:58;37.47;;;8.10;;
5795;SDS011;2924;51.458;7.046;2023-03-12T16:15:30;50.47;;;8.03;;
5795;SDS011;2924;51.458;7.046;2023-03-12T16:17:57;35.63;;;7.87;;
5795;SDS011;2924;51.458;7.046;2023-03-12T16:20:23;34.87;;;7.30;;
5795;SDS011;2924;51.458;7.046;2023-03-12T16:22:49;31.90;;;7.23;;
5795;SDS011;2924;51.458;7.046;2023-03-12T16:25:15;40.83;;;7.10;;
5795;SDS011;2924;51.458;7.046;2023-03-12T16:27:46;22.93;;;5.80;;
5795;SDS011;2924;51.458;7.046;2023-03-12T16:30:19;24.37;;;5.50;;
5795;SDS011;2924;51.458;7.046;2023-03-12T16:32:51;28.90;;;5.37;;
5795;SDS011;2924;51.458;7.046;2023-03-12T16:35:17;27.20;;;6.07;;
5795;SDS011;2924;51.458;7.046;2023-03-12T16:37:44;39.00;;;6.00;;
5795;SDS011;2924;51.458;7.046;2023-03-12T16:40:12;29.47;;;5.90;;
5795;SDS011;2924;51.458;7.046;2023-03-12T16:42:39;29.07;;;6.17;;
5795;SDS011;2924;51.458;7.046;2023-03-12T16:45:13;33.27;;;4.40;;
5795;SDS011;2924;51.458;7.046;2023-03-12T16:47:41;28.67;;;5.00;;
5795;SDS011;2924;51.458;7.046;2023-03-12T16:50:14;25.77;;;5.73;;
5795;SDS011;2924;51.458;7.046;2023-03-12T16:52:42;28.37;;;6.77;;
5795;SDS011;2924;51.458;7.046;2023-03-12T16:55:11;22.27;;;4.90;;
5795;SDS011;2924;51.458;7.046;2023-03-12T16:57:50;24.50;;;5.30;;
5795;SDS011;2924;51.458;7.046;2023-03-12T17:00:18;39.53;;;6.53;;
5795;SDS011;2924;51.458;7.046;2023-03-12T17:02:46;35.87;;;6.73;;
5795;SDS011;2924;51.458;7.046;2023-03-12T17:05:13;22.23;;;5.00;;
5795;SDS011;2924;51.458;7.046;2023-03-12T17:07:39;24.67;;;5.03;;
5795;SDS011;2924;51.458;7.046;2023-03-12T17:10:05;21.83;;;5.00;;
5795;SDS011;2924;51.458;7.046;2023-03-12T17:12:32;24.57;;;4.93;;
5795;SDS011;2924;51.458;7.046;2023-03-12T17:15:00;27.77;;;5.20;;
5795;SDS011;2924;51.458;7.046;2023-03-12T17:17:29;33.17;;;5.30;;
5795;SDS011;2924;51.458;7.046;2023-03-12T17:19:55;31.30;;;4.87;;
5795;SDS011;2924;51.458;7.046;2023-03-12T17:22:23;24.77;;;5.10;;
5795;SDS011;2924;51.458;7.046;2023-03-12T17:24:50;23.70;;;4.73;;
5795;SDS011;2924;51.458;7.046;2023-03-12T17:27:16;52.70;;;5.50;;
5795;SDS011;2924;51.458;7.046;2023-03-12T17:29:42;22.17;;;4.13;;
5795;SDS011;2924;51.458;7.046;2023-03-12T17:32:07;28.97;;;5.67;;
5795;SDS011;2924;51.458;7.046;2023-03-12T17:34:33;26.63;;;5.23;;
5795;SDS011;2924;51.458;7.046;2023-03-12T17:36:59;27.83;;;6.30;;
5795;SDS011;2924;51.458;7.046;2023-03-12T17:39:25;33.53;;;5.50;;
5795;SDS011;2924;51.458;7.046;2023-03-12T17:41:51;27.50;;;5.43;;
5795;SDS011;2924;51.458;7.046;2023-03-12T17:44:16;33.00;;;6.37;;
5795;SDS011;2924;51.458;7.046;2023-03-12T17:46:42;26.27;;;5.17;;
5795;SDS011;2924;51.458;7.046;2023-03-12T17:49:08;27.43;;;4.90;;
5795;SDS011;2924;51.458;7.046;2023-03-12T17:51:34;28.60;;;5.77;;
5795;SDS011;2924;51.458;7.046;2023-03-12T17:54:00;38.50;;;5.23;;
5795;SDS011;2924;51.458;7.046;2023-03-12T17:56:25;26.07;;;4.90;;